sensor_id;sensor_type;location;lat;lon;timestamp;P1;durP1;ratioP1;P2;durP2;ratioP2
57730;SDS011;43570;47.476;19.040;2023-07-20T00:02:09;10.25;;;4.45;;
57730;SDS011;43570;47.476;19.040;2023-07-20T00:04:34;10.13;;;4.32;;
57730;SDS011;43570;47.476;19.040;2023-07-20T00:06:59;8.43;;;4.40;;
57730;SDS011;43570;47.476;19.040;2023-07-20T00:09:27;8.40;;;3.95;;
57730;SDS011;43570;47.476;19.040;2023-07-20T00:11:53;6.62;;;4.15;;
57730;SDS011;43570;47.476;19.040;2023-07-20T00:14:25;9.38;;;4.07;;
57730;SDS011;43570;47.476;19.040;2023-07-20T00:16:50;8.90;;;4.10;;
57730;SDS011;43570;47.476;19.040;2023-07-20T00:19:27;7.82;;;3.72;;
57730;SDS011;43570;47.476;19.040;2023-07-20T00:21:53;8.25;;;4.20;;
57730;SDS011;43570;47.476;19.040;2023-07-20T00:24:19;7.62;;;3.80;;
57730;SDS011;43570;47.476;19.040;2023-07-20T00:26:45;8.38;;;4.30;;
57730;SDS011;43570;47.476;19.040;2023-07-20T00:29:10;6.20;;;3.78;;
57730;SDS011;43570;47.476;19.040;2023-07-20T00:31:36;7.10;;;4.22;;
57730;SDS011;43570;47.476;19.040;2023-07-20T00:34:02;8.73;;;3.90;;
57730;SDS011;43570;47.476;19.040;2023-07-20T00:36:28;7.60;;;4.32;;
57730;SDS011;43570;47.476;19.040;2023-07-20T00:38:54;10.43;;;3.80;;
57730;SDS011;43570;47.476;19.040;2023-07-20T00:41:19;10.55;;;4.40;;
57730;SDS011;43570;47.476;19.040;2023-07-20T00:43:45;9.52;;;4.32;;
57730;SDS011;43570;47.476;19.040;2023-07-20T00:46:10;8.25;;;4.53;;
57730;SDS011;43570;47.476;19.040;2023-07-20T00:48:36;9.10;;;4.60;;
57730;SDS011;43570;47.476;19.040;2023-07-20T00:51:01;9.40;;;5.18;;
57730;SDS011;43570;47.476;19.040;2023-07-20T00:53:27;9.48;;;4.72;;
57730;SDS011;43570;47.476;19.040;2023-07-20T00:55:52;8.00;;;4.40;;
57730;SDS011;43570;47.476;19.040;2023-07-20T00:58:18;8.18;;;4.18;;
57730;SDS011;43570;47.476;19.040;2023-07-20T01:00:44;9.35;;;4.43;;
57730;SDS011;43570;47.476;19.040;2023-07-20T01:03:09;8.93;;;4.18;;
57730;SDS011;43570;47.476;19.040;2023-07-20T01:05:43;7.80;;;4.30;;
57730;SDS011;43570;47.476;19.040;2023-07-20T01:08:35;10.45;;;4.68;;
57730;SDS011;43570;47.476;19.040;2023-07-20T01:11:13;8.65;;;3.95;;
57730;SDS011;43570;47.476;19.040;2023-07-20T01:14:00;11.32;;;6.55;;
57730;SDS011;43570;47.476;19.040;2023-07-20T01:16:25;9.18;;;4.80;;
57730;SDS011;43570;47.476;19.040;2023-07-20T01:18:52;10.20;;;4.62;;
57730;SDS011;43570;47.476;19.040;2023-07-20T01:21:22;7.80;;;4.20;;
57730;SDS011;43570;47.476;19.040;2023-07-20T01:32:26;7.37;;;4.25;;
57730;SDS011;43570;47.476;19.040;2023-07-20T01:34:52;10.23;;;4.72;;
57730;SDS011;43570;47.476;19.040;2023-07-20T01:37:19;7.93;;;4.15;;
57730;SDS011;43570;47.476;19.040;2023-07-20T01:39:45;10.23;;;4.60;;
57730;SDS011;43570;47.476;19.040;2023-07-20T01:42:11;9.32;;;4.37;;
57730;SDS011;43570;47.476;19.040;2023-07-20T01:44:38;8.38;;;3.78;;
57730;SDS011;43570;47.476;19.040;2023-07-20T01:47:03;7.15;;;4.22;;
57730;SDS011;43570;47.476;19.040;2023-07-20T01:49:29;7.28;;;4.28;;
57730;SDS011;43570;47.476;19.040;2023-07-20T01:51:54;7.07;;;3.83;;
57730;SDS011;43570;47.476;19.040;2023-07-20T01:54:20;8.57;;;4.32;;
57730;SDS011;43570;47.476;19.040;2023-07-20T01:56:46;10.98;;;4.80;;
57730;SDS011;43570;47.476;19.040;2023-07-20T01:59:11;8.80;;;4.40;;
57730;SDS011;43570;47.476;19.040;2023-07-20T02:01:37;8.73;;;4.47;;
57730;SDS011;43570;47.476;19.040;2023-07-20T02:04:02;9.32;;;4.70;;
57730;SDS011;43570;47.476;19.040;2023-07-20T02:06:27;9.48;;;4.65;;
57730;SDS011;43570;47.476;19.040;2023-07-20T02:08:53;10.60;;;4.32;;
57730;SDS011;43570;47.476;19.040;2023-07-20T02:11:19;8.40;;;4.50;;
57730;SDS011;43570;47.476;19.040;2023-07-20T02:13:44;11.77;;;4.05;;
57730;SDS011;43570;47.476;19.040;2023-07-20T02:16:09;10.38;;;4.53;;
57730;SDS011;43570;47.476;19.040;2023-07-20T02:18:36;8.23;;;4.50;;
57730;SDS011;43570;47.476;19.040;2023-07-20T02:21:02;8.32;;;4.15;;
57730;SDS011;43570;47.476;19.040;2023-07-20T02:23:27;8.57;;;4.15;;
57730;SDS011;43570;47.476;19.040;2023-07-20T02:25:53;9.18;;;4.10;;
57730;SDS011;43570;47.476;19.040;2023-07-20T02:28:18;8.05;;;4.15;;
57730;SDS011;43570;47.476;19.040;2023-07-20T02:30:44;6.95;;;3.95;;
57730;SDS011;43570;47.476;19.040;2023-07-20T02:33:09;6.57;;;3.78;;
57730;SDS011;43570;47.476;19.040;2023-07-20T02:35:34;9.48;;;4.57;;
57730;SDS011;43570;47.476;19.040;2023-07-20T02:38:00;8.10;;;4.10;;
57730;SDS011;43570;47.476;19.040;2023-07-20T02:40:25;8.90;;;4.45;;
57730;SDS011;43570;47.476;19.040;2023-07-20T02:42:50;10.90;;;5.70;;
57730;SDS011;43570;47.476;19.040;2023-07-20T02:45:16;8.25;;;4.00;;
57730;SDS011;43570;47.476;19.040;2023-07-20T02:47:41;7.80;;;4.62;;
57730;SDS011;43570;47.476;19.040;2023-07-20T02:50:07;7.50;;;4.10;;
57730;SDS011;43570;47.476;19.040;2023-07-20T02:52:33;8.90;;;4.50;;
57730;SDS011;43570;47.476;19.040;2023-07-20T02:54:58;9.20;;;4.40;;
57730;SDS011;43570;47.476;19.040;2023-07-20T02:57:24;10.20;;;4.25;;
57730;SDS011;43570;47.476;19.040;2023-07-20T02:59:49;7.70;;;4.32;;
57730;SDS011;43570;47.476;19.040;2023-07-20T03:02:14;10.18;;;4.28;;
57730;SDS011;43570;47.476;19.040;2023-07-20T03:04:40;6.87;;;3.78;;
57730;SDS011;43570;47.476;19.040;2023-07-20T03:07:05;6.28;;;4.05;;
57730;SDS011;43570;47.476;19.040;2023-07-20T03:09:32;9.00;;;4.30;;
57730;SDS011;43570;47.476;19.040;2023-07-20T03:11:57;8.48;;;4.37;;
57730;SDS011;43570;47.476;19.040;2023-07-20T03:14:22;7.75;;;4.20;;
57730;SDS011;43570;47.476;19.040;2023-07-20T03:16:48;8.77;;;4.90;;
57730;SDS011;43570;47.476;19.040;2023-07-20T03:19:14;11.27;;;4.22;;
57730;SDS011;43570;47.476;19.040;2023-07-20T03:21:39;8.60;;;4.60;;
57730;SDS011;43570;47.476;19.040;2023-07-20T03:24:06;8.15;;;4.68;;
57730;SDS011;43570;47.476;19.040;2023-07-20T03:26:33;7.68;;;4.10;;
57730;SDS011;43570;47.476;19.040;2023-07-20T03:28:59;8.65;;;4.60;;
57730;SDS011;43570;47.476;19.040;2023-07-20T03:31:24;7.32;;;4.50;;
57730;SDS011;43570;47.476;19.040;2023-07-20T03:33:50;8.45;;;3.83;;
57730;SDS011;43570;47.476;19.040;2023-07-20T03:36:15;7.40;;;3.85;;
57730;SDS011;43570;47.476;19.040;2023-07-20T03:38:40;8.00;;;4.22;;
57730;SDS011;43570;47.476;19.040;2023-07-20T03:41:06;8.55;;;4.18;;
57730;SDS011;43570;47.476;19.040;2023-07-20T03:43:31;6.53;;;3.55;;
57730;SDS011;43570;47.476;19.040;2023-07-20T03:45:56;7.50;;;4.37;;
57730;SDS011;43570;47.476;19.040;2023-07-20T03:48:23;6.85;;;4.00;;
57730;SDS011;43570;47.476;19.040;2023-07-20T03:50:51;9.88;;;4.07;;
57730;SDS011;43570;47.476;19.040;2023-07-20T03:53:17;9.45;;;4.55;;
57730;SDS011;43570;47.476;19.040;2023-07-20T03:55:49;9.07;;;4.03;;
57730;SDS011;43570;47.476;19.040;2023-07-20T03:58:16;8.00;;;4.18;;
57730;SDS011;43570;47.476;19.040;2023-07-20T04:00:46;9.90;;;4.65;;
57730;SDS011;43570;47.476;19.040;2023-07-20T04:03:19;10.15;;;5.07;;
57730;SDS011;43570;47.476;19.040;2023-07-20T04:05:45;7.65;;;4.47;;
57730;SDS011;43570;47.476;19.040;2023-07-20T04:08:11;8.02;;;4.05;;
57730;SDS011;43570;47.476;19.040;2023-07-20T04:10:37;7.47;;;3.90;;
57730;SDS011;43570;47.476;19.040;2023-07-20T04:13:03;9.30;;;4.60;;
57730;SDS011;43570;47.476;19.040;2023-07-20T04:15:28;6.70;;;4.22;;
57730;SDS011;43570;47.476;19.040;2023-07-20T04:17:55;10.50;;;4.37;;
57730;SDS011;43570;47.476;19.040;2023-07-20T04:20:21;9.48;;;4.00;;
57730;SDS011;43570;47.476;19.040;2023-07-20T04:22:47;8.52;;;4.60;;
57730;SDS011;43570;47.476;19.040;2023-07-20T04:25:13;6.95;;;4.07;;
57730;SDS011;43570;47.476;19.040;2023-07-20T04:27:38;9.50;;;4.53;;
57730;SDS011;43570;47.476;19.040;2023-07-20T04:30:04;7.50;;;4.50;;
57730;SDS011;43570;47.476;19.040;2023-07-20T04:32:31;8.07;;;4.03;;
57730;SDS011;43570;47.476;19.040;2023-07-20T04:34:58;8.57;;;4.22;;
57730;SDS011;43570;47.476;19.040;2023-07-20T04:37:24;8.27;;;4.40;;
57730;SDS011;43570;47.476;19.040;2023-07-20T04:39:49;9.32;;;4.78;;
57730;SDS011;43570;47.476;19.040;2023-07-20T04:42:15;7.35;;;4.50;;
57730;SDS011;43570;47.476;19.040;2023-07-20T04:44:41;9.60;;;4.28;;
57730;SDS011;43570;47.476;19.040;2023-07-20T04:47:06;9.13;;;4.15;;
57730;SDS011;43570;47.476;19.040;2023-07-20T04:49:31;6.37;;;4.00;;
57730;SDS011;43570;47.476;19.040;2023-07-20T04:51:57;6.53;;;4.15;;
57730;SDS011;43570;47.476;19.040;2023-07-20T04:54:22;8.80;;;4.25;;
57730;SDS011;43570;47.476;19.040;2023-07-20T04:56:48;10.90;;;4.50;;
57730;SDS011;43570;47.476;19.040;2023-07-20T04:59:13;5.47;;;3.70;;
57730;SDS011;43570;47.476;19.040;2023-07-20T05:01:38;7.47;;;3.85;;
57730;SDS011;43570;47.476;19.040;2023-07-20T05:04:04;6.15;;;3.60;;
57730;SDS011;43570;47.476;19.040;2023-07-20T05:06:29;7.97;;;4.10;;
57730;SDS011;43570;47.476;19.040;2023-07-20T05:08:55;7.57;;;4.00;;
57730;SDS011;43570;47.476;19.040;2023-07-20T05:11:20;7.93;;;4.20;;
57730;SDS011;43570;47.476;19.040;2023-07-20T05:13:45;8.73;;;4.10;;
57730;SDS011;43570;47.476;19.040;2023-07-20T05:16:11;7.60;;;3.83;;
57730;SDS011;43570;47.476;19.040;2023-07-20T05:18:36;7.60;;;4.00;;
57730;SDS011;43570;47.476;19.040;2023-07-20T05:21:02;8.18;;;3.90;;
57730;SDS011;43570;47.476;19.040;2023-07-20T05:23:27;7.25;;;3.85;;
57730;SDS011;43570;47.476;19.040;2023-07-20T05:25:56;6.60;;;4.20;;
57730;SDS011;43570;47.476;19.040;2023-07-20T05:28:26;7.03;;;4.20;;
57730;SDS011;43570;47.476;19.040;2023-07-20T05:30:52;9.60;;;4.22;;
57730;SDS011;43570;47.476;19.040;2023-07-20T05:33:20;6.20;;;4.07;;
57730;SDS011;43570;47.476;19.040;2023-07-20T05:35:46;8.20;;;4.10;;
57730;SDS011;43570;47.476;19.040;2023-07-20T05:38:12;6.62;;;3.53;;
57730;SDS011;43570;47.476;19.040;2023-07-20T05:40:38;6.95;;;3.90;;
57730;SDS011;43570;47.476;19.040;2023-07-20T05:43:05;8.15;;;3.92;;
57730;SDS011;43570;47.476;19.040;2023-07-20T05:45:30;6.75;;;4.25;;
57730;SDS011;43570;47.476;19.040;2023-07-20T05:47:55;6.15;;;3.80;;
57730;SDS011;43570;47.476;19.040;2023-07-20T05:50:21;8.60;;;4.30;;
57730;SDS011;43570;47.476;19.040;2023-07-20T05:52:46;7.53;;;4.05;;
57730;SDS011;43570;47.476;19.040;2023-07-20T05:55:13;6.97;;;4.15;;
57730;SDS011;43570;47.476;19.040;2023-07-20T05:57:38;9.98;;;4.70;;
57730;SDS011;43570;47.476;19.040;2023-07-20T06:00:07;6.37;;;4.07;;
57730;SDS011;43570;47.476;19.040;2023-07-20T06:02:33;8.60;;;4.60;;
57730;SDS011;43570;47.476;19.040;2023-07-20T06:04:58;9.30;;;6.20;;
57730;SDS011;43570;47.476;19.040;2023-07-20T06:07:23;9.15;;;5.40;;
57730;SDS011;43570;47.476;19.040;2023-07-20T06:09:49;9.13;;;4.75;;
57730;SDS011;43570;47.476;19.040;2023-07-20T06:12:14;7.55;;;4.15;;
57730;SDS011;43570;47.476;19.040;2023-07-20T06:14:40;8.32;;;4.45;;
57730;SDS011;43570;47.476;19.040;2023-07-20T06:17:05;11.23;;;4.85;;
57730;SDS011;43570;47.476;19.040;2023-07-20T06:19:31;7.90;;;4.10;;
57730;SDS011;43570;47.476;19.040;2023-07-20T06:21:56;6.40;;;4.65;;
57730;SDS011;43570;47.476;19.040;2023-07-20T06:24:22;9.20;;;4.95;;
57730;SDS011;43570;47.476;19.040;2023-07-20T06:26:47;7.30;;;4.80;;
57730;SDS011;43570;47.476;19.040;2023-07-20T06:29:13;8.50;;;4.05;;
57730;SDS011;43570;47.476;19.040;2023-07-20T06:31:38;7.37;;;4.75;;
57730;SDS011;43570;47.476;19.040;2023-07-20T06:34:03;6.93;;;4.82;;
57730;SDS011;43570;47.476;19.040;2023-07-20T06:36:29;7.50;;;4.30;;
57730;SDS011;43570;47.476;19.040;2023-07-20T06:38:55;6.90;;;4.32;;
57730;SDS011;43570;47.476;19.040;2023-07-20T06:41:21;6.45;;;3.92;;
57730;SDS011;43570;47.476;19.040;2023-07-20T06:43:47;7.20;;;4.45;;
57730;SDS011;43570;47.476;19.040;2023-07-20T06:46:12;7.97;;;4.05;;
57730;SDS011;43570;47.476;19.040;2023-07-20T06:48:39;9.85;;;4.60;;
57730;SDS011;43570;47.476;19.040;2023-07-20T06:51:05;7.90;;;4.65;;
57730;SDS011;43570;47.476;19.040;2023-07-20T06:53:31;7.70;;;4.10;;
57730;SDS011;43570;47.476;19.040;2023-07-20T06:55:56;10.00;;;5.00;;
57730;SDS011;43570;47.476;19.040;2023-07-20T06:58:23;6.57;;;4.22;;
57730;SDS011;43570;47.476;19.040;2023-07-20T07:00:48;8.27;;;4.57;;
57730;SDS011;43570;47.476;19.040;2023-07-20T07:03:15;6.47;;;4.28;;
57730;SDS011;43570;47.476;19.040;2023-07-20T07:05:41;9.85;;;5.90;;
57730;SDS011;43570;47.476;19.040;2023-07-20T07:08:06;8.55;;;4.00;;
57730;SDS011;43570;47.476;19.040;2023-07-20T07:10:32;8.80;;;4.45;;
57730;SDS011;43570;47.476;19.040;2023-07-20T07:12:58;8.95;;;3.90;;
57730;SDS011;43570;47.476;19.040;2023-07-20T07:15:23;8.50;;;4.18;;
57730;SDS011;43570;47.476;19.040;2023-07-20T07:17:49;10.10;;;3.85;;
57730;SDS011;43570;47.476;19.040;2023-07-20T07:20:15;8.93;;;4.53;;
57730;SDS011;43570;47.476;19.040;2023-07-20T07:22:41;10.82;;;4.53;;
57730;SDS011;43570;47.476;19.040;2023-07-20T07:25:09;14.98;;;5.07;;
57730;SDS011;43570;47.476;19.040;2023-07-20T07:27:34;8.45;;;3.95;;
57730;SDS011;43570;47.476;19.040;2023-07-20T07:30:00;5.90;;;3.78;;
57730;SDS011;43570;47.476;19.040;2023-07-20T07:32:25;8.30;;;3.90;;
57730;SDS011;43570;47.476;19.040;2023-07-20T07:34:51;7.90;;;3.67;;
57730;SDS011;43570;47.476;19.040;2023-07-20T07:37:17;6.62;;;4.07;;
57730;SDS011;43570;47.476;19.040;2023-07-20T07:39:44;5.35;;;3.85;;
57730;SDS011;43570;47.476;19.040;2023-07-20T07:42:10;8.82;;;3.97;;
57730;SDS011;43570;47.476;19.040;2023-07-20T07:44:37;7.07;;;3.65;;
57730;SDS011;43570;47.476;19.040;2023-07-20T07:47:02;8.90;;;4.00;;
57730;SDS011;43570;47.476;19.040;2023-07-20T07:49:28;8.73;;;4.30;;
57730;SDS011;43570;47.476;19.040;2023-07-20T07:51:54;7.53;;;4.30;;
57730;SDS011;43570;47.476;19.040;2023-07-20T07:54:19;6.20;;;3.90;;
57730;SDS011;43570;47.476;19.040;2023-07-20T07:56:45;9.02;;;4.30;;
57730;SDS011;43570;47.476;19.040;2023-07-20T07:59:10;7.03;;;3.85;;
57730;SDS011;43570;47.476;19.040;2023-07-20T08:01:36;6.60;;;3.72;;
57730;SDS011;43570;47.476;19.040;2023-07-20T08:04:01;7.03;;;3.90;;
57730;SDS011;43570;47.476;19.040;2023-07-20T08:06:28;7.45;;;4.95;;
57730;SDS011;43570;47.476;19.040;2023-07-20T08:08:54;5.85;;;3.58;;
57730;SDS011;43570;47.476;19.040;2023-07-20T08:11:19;7.78;;;4.05;;
57730;SDS011;43570;47.476;19.040;2023-07-20T08:13:46;7.53;;;4.62;;
57730;SDS011;43570;47.476;19.040;2023-07-20T08:16:11;6.85;;;3.90;;
57730;SDS011;43570;47.476;19.040;2023-07-20T08:18:37;8.10;;;4.10;;
57730;SDS011;43570;47.476;19.040;2023-07-20T08:21:02;6.72;;;3.72;;
57730;SDS011;43570;47.476;19.040;2023-07-20T08:23:28;7.68;;;3.95;;
57730;SDS011;43570;47.476;19.040;2023-07-20T08:25:53;6.18;;;3.58;;
57730;SDS011;43570;47.476;19.040;2023-07-20T08:28:19;7.65;;;3.90;;
57730;SDS011;43570;47.476;19.040;2023-07-20T08:30:45;5.05;;;3.50;;
57730;SDS011;43570;47.476;19.040;2023-07-20T08:33:16;5.60;;;3.70;;
57730;SDS011;43570;47.476;19.040;2023-07-20T08:35:45;7.55;;;3.40;;
57730;SDS011;43570;47.476;19.040;2023-07-20T08:38:11;6.35;;;3.33;;
57730;SDS011;43570;47.476;19.040;2023-07-20T08:40:40;7.12;;;3.40;;
57730;SDS011;43570;47.476;19.040;2023-07-20T08:43:07;6.93;;;3.83;;
57730;SDS011;43570;47.476;19.040;2023-07-20T08:45:35;6.85;;;3.53;;
57730;SDS011;43570;47.476;19.040;2023-07-20T08:48:01;7.87;;;3.25;;
57730;SDS011;43570;47.476;19.040;2023-07-20T08:50:31;5.57;;;3.62;;
57730;SDS011;43570;47.476;19.040;2023-07-20T08:52:59;7.30;;;3.05;;
57730;SDS011;43570;47.476;19.040;2023-07-20T08:55:28;5.65;;;3.17;;
57730;SDS011;43570;47.476;19.040;2023-07-20T09:00:19;6.85;;;3.35;;
57730;SDS011;43570;47.476;19.040;2023-07-20T09:02:45;13.55;;;3.85;;
57730;SDS011;43570;47.476;19.040;2023-07-20T09:05:11;6.60;;;3.05;;
57730;SDS011;43570;47.476;19.040;2023-07-20T09:07:39;8.38;;;3.62;;
57730;SDS011;43570;47.476;19.040;2023-07-20T09:10:05;9.38;;;3.60;;
57730;SDS011;43570;47.476;19.040;2023-07-20T09:12:35;8.13;;;3.35;;
57730;SDS011;43570;47.476;19.040;2023-07-20T09:15:01;5.45;;;3.17;;
57730;SDS011;43570;47.476;19.040;2023-07-20T09:17:27;6.35;;;3.03;;
57730;SDS011;43570;47.476;19.040;2023-07-20T09:19:52;6.47;;;3.10;;
57730;SDS011;43570;47.476;19.040;2023-07-20T09:22:19;8.77;;;3.35;;
57730;SDS011;43570;47.476;19.040;2023-07-20T09:24:44;6.10;;;3.05;;
57730;SDS011;43570;47.476;19.040;2023-07-20T09:27:10;6.82;;;3.35;;
57730;SDS011;43570;47.476;19.040;2023-07-20T09:29:47;6.00;;;3.15;;
57730;SDS011;43570;47.476;19.040;2023-07-20T09:32:19;6.15;;;3.10;;
57730;SDS011;43570;47.476;19.040;2023-07-20T09:34:49;4.78;;;2.70;;
57730;SDS011;43570;47.476;19.040;2023-07-20T09:37:22;5.20;;;3.12;;
57730;SDS011;43570;47.476;19.040;2023-07-20T09:39:51;6.65;;;3.33;;
57730;SDS011;43570;47.476;19.040;2023-07-20T09:42:17;11.80;;;3.70;;
57730;SDS011;43570;47.476;19.040;2023-07-20T09:44:43;6.22;;;3.22;;
57730;SDS011;43570;47.476;19.040;2023-07-20T09:47:09;6.90;;;3.22;;
57730;SDS011;43570;47.476;19.040;2023-07-20T09:49:41;6.70;;;3.45;;
57730;SDS011;43570;47.476;19.040;2023-07-20T09:52:09;5.72;;;2.90;;
57730;SDS011;43570;47.476;19.040;2023-07-20T09:54:39;6.40;;;3.40;;
57730;SDS011;43570;47.476;19.040;2023-07-20T09:57:08;7.07;;;3.35;;
57730;SDS011;43570;47.476;19.040;2023-07-20T09:59:34;4.43;;;2.83;;
57730;SDS011;43570;47.476;19.040;2023-07-20T10:02:00;4.10;;;2.47;;
57730;SDS011;43570;47.476;19.040;2023-07-20T10:04:27;6.03;;;3.00;;
57730;SDS011;43570;47.476;19.040;2023-07-20T10:06:55;5.57;;;2.67;;
57730;SDS011;43570;47.476;19.040;2023-07-20T10:09:21;6.90;;;3.20;;
57730;SDS011;43570;47.476;19.040;2023-07-20T10:11:49;5.78;;;2.92;;
57730;SDS011;43570;47.476;19.040;2023-07-20T10:14:19;6.25;;;2.97;;
57730;SDS011;43570;47.476;19.040;2023-07-20T10:16:55;9.75;;;3.47;;
57730;SDS011;43570;47.476;19.040;2023-07-20T10:19:42;7.85;;;3.20;;
57730;SDS011;43570;47.476;19.040;2023-07-20T10:22:31;7.57;;;3.80;;
57730;SDS011;43570;47.476;19.040;2023-07-20T10:24:56;5.87;;;3.25;;
57730;SDS011;43570;47.476;19.040;2023-07-20T10:27:23;6.82;;;3.20;;
57730;SDS011;43570;47.476;19.040;2023-07-20T10:29:50;8.45;;;3.30;;
57730;SDS011;43570;47.476;19.040;2023-07-20T10:32:17;6.22;;;3.03;;
57730;SDS011;43570;47.476;19.040;2023-07-20T10:34:51;5.57;;;2.95;;
57730;SDS011;43570;47.476;19.040;2023-07-20T10:43:09;6.97;;;3.58;;
57730;SDS011;43570;47.476;19.040;2023-07-20T10:48:12;6.93;;;3.40;;
57730;SDS011;43570;47.476;19.040;2023-07-20T10:50:42;8.93;;;3.45;;
57730;SDS011;43570;47.476;19.040;2023-07-20T10:55:37;7.75;;;3.90;;
57730;SDS011;43570;47.476;19.040;2023-07-20T10:58:07;8.32;;;3.30;;
57730;SDS011;43570;47.476;19.040;2023-07-20T11:00:34;4.22;;;2.70;;
57730;SDS011;43570;47.476;19.040;2023-07-20T11:03:00;6.43;;;3.03;;
57730;SDS011;43570;47.476;19.040;2023-07-20T11:05:38;3.40;;;2.40;;
57730;SDS011;43570;47.476;19.040;2023-07-20T11:08:14;5.45;;;2.97;;
57730;SDS011;43570;47.476;19.040;2023-07-20T11:13:53;6.62;;;3.08;;
57730;SDS011;43570;47.476;19.040;2023-07-20T11:16:39;7.55;;;3.10;;
57730;SDS011;43570;47.476;19.040;2023-07-20T11:19:05;6.57;;;2.80;;
57730;SDS011;43570;47.476;19.040;2023-07-20T11:21:37;5.62;;;2.83;;
57730;SDS011;43570;47.476;19.040;2023-07-20T11:24:04;7.12;;;3.20;;
57730;SDS011;43570;47.476;19.040;2023-07-20T11:26:30;5.18;;;2.75;;
57730;SDS011;43570;47.476;19.040;2023-07-20T11:29:04;4.53;;;2.62;;
57730;SDS011;43570;47.476;19.040;2023-07-20T11:31:30;6.40;;;2.80;;
57730;SDS011;43570;47.476;19.040;2023-07-20T11:33:55;5.50;;;3.00;;
57730;SDS011;43570;47.476;19.040;2023-07-20T11:36:20;8.05;;;2.60;;
57730;SDS011;43570;47.476;19.040;2023-07-20T11:38:46;3.90;;;2.37;;
57730;SDS011;43570;47.476;19.040;2023-07-20T11:41:12;4.32;;;2.42;;
57730;SDS011;43570;47.476;19.040;2023-07-20T11:43:38;6.62;;;2.80;;
57730;SDS011;43570;47.476;19.040;2023-07-20T11:46:04;8.18;;;3.35;;
57730;SDS011;43570;47.476;19.040;2023-07-20T11:48:30;5.03;;;2.42;;
57730;SDS011;43570;47.476;19.040;2023-07-20T11:50:55;9.63;;;2.85;;
57730;SDS011;43570;47.476;19.040;2023-07-20T11:53:21;4.95;;;2.62;;
57730;SDS011;43570;47.476;19.040;2023-07-20T11:55:46;5.20;;;2.60;;
57730;SDS011;43570;47.476;19.040;2023-07-20T11:58:12;5.07;;;2.80;;
57730;SDS011;43570;47.476;19.040;2023-07-20T12:00:38;4.18;;;2.47;;
57730;SDS011;43570;47.476;19.040;2023-07-20T12:03:09;5.00;;;2.60;;
57730;SDS011;43570;47.476;19.040;2023-07-20T12:05:38;5.20;;;2.55;;
57730;SDS011;43570;47.476;19.040;2023-07-20T12:08:04;7.07;;;2.87;;
57730;SDS011;43570;47.476;19.040;2023-07-20T12:10:29;6.85;;;2.60;;
57730;SDS011;43570;47.476;19.040;2023-07-20T12:13:00;5.90;;;2.62;;
57730;SDS011;43570;47.476;19.040;2023-07-20T12:15:29;5.50;;;2.70;;
57730;SDS011;43570;47.476;19.040;2023-07-20T12:17:56;7.85;;;2.90;;
57730;SDS011;43570;47.476;19.040;2023-07-20T12:23:04;5.82;;;2.85;;
57730;SDS011;43570;47.476;19.040;2023-07-20T12:25:42;5.05;;;2.33;;
57730;SDS011;43570;47.476;19.040;2023-07-20T12:28:10;5.65;;;2.97;;
57730;SDS011;43570;47.476;19.040;2023-07-20T12:30:37;5.37;;;2.60;;
57730;SDS011;43570;47.476;19.040;2023-07-20T12:33:03;5.47;;;2.72;;
57730;SDS011;43570;47.476;19.040;2023-07-20T12:35:29;4.55;;;2.65;;
57730;SDS011;43570;47.476;19.040;2023-07-20T12:37:56;4.80;;;2.80;;
57730;SDS011;43570;47.476;19.040;2023-07-20T12:40:21;4.93;;;2.42;;
57730;SDS011;43570;47.476;19.040;2023-07-20T12:42:46;5.57;;;2.45;;
57730;SDS011;43570;47.476;19.040;2023-07-20T12:45:12;6.82;;;2.47;;
57730;SDS011;43570;47.476;19.040;2023-07-20T12:47:38;6.10;;;2.72;;
57730;SDS011;43570;47.476;19.040;2023-07-20T12:50:04;6.30;;;2.28;;
57730;SDS011;43570;47.476;19.040;2023-07-20T12:52:31;5.12;;;2.55;;
57730;SDS011;43570;47.476;19.040;2023-07-20T12:54:57;4.35;;;2.55;;
57730;SDS011;43570;47.476;19.040;2023-07-20T12:57:23;6.87;;;2.50;;
57730;SDS011;43570;47.476;19.040;2023-07-20T12:59:48;6.18;;;2.62;;
57730;SDS011;43570;47.476;19.040;2023-07-20T13:02:14;6.05;;;2.72;;
57730;SDS011;43570;47.476;19.040;2023-07-20T13:04:39;4.15;;;2.65;;
57730;SDS011;43570;47.476;19.040;2023-07-20T13:07:05;7.15;;;2.72;;
57730;SDS011;43570;47.476;19.040;2023-07-20T13:09:33;5.78;;;2.55;;
57730;SDS011;43570;47.476;19.040;2023-07-20T13:11:58;3.85;;;2.60;;
57730;SDS011;43570;47.476;19.040;2023-07-20T13:14:24;4.47;;;2.20;;
57730;SDS011;43570;47.476;19.040;2023-07-20T13:16:50;5.75;;;2.70;;
57730;SDS011;43570;47.476;19.040;2023-07-20T13:19:15;7.60;;;3.30;;
57730;SDS011;43570;47.476;19.040;2023-07-20T13:21:40;4.10;;;2.17;;
57730;SDS011;43570;47.476;19.040;2023-07-20T13:24:06;5.82;;;2.50;;
57730;SDS011;43570;47.476;19.040;2023-07-20T13:26:31;6.12;;;2.58;;
57730;SDS011;43570;47.476;19.040;2023-07-20T13:28:56;4.50;;;2.30;;
57730;SDS011;43570;47.476;19.040;2023-07-20T13:31:22;5.75;;;2.50;;
57730;SDS011;43570;47.476;19.040;2023-07-20T13:33:47;4.47;;;2.53;;
57730;SDS011;43570;47.476;19.040;2023-07-20T13:36:13;5.55;;;2.62;;
57730;SDS011;43570;47.476;19.040;2023-07-20T13:38:38;5.07;;;2.35;;
57730;SDS011;43570;47.476;19.040;2023-07-20T13:41:04;6.72;;;2.58;;
57730;SDS011;43570;47.476;19.040;2023-07-20T13:43:29;6.78;;;2.90;;
57730;SDS011;43570;47.476;19.040;2023-07-20T13:45:55;7.20;;;2.95;;
57730;SDS011;43570;47.476;19.040;2023-07-20T13:48:20;8.00;;;3.28;;
57730;SDS011;43570;47.476;19.040;2023-07-20T13:50:48;5.50;;;3.20;;
57730;SDS011;43570;47.476;19.040;2023-07-20T13:53:13;5.22;;;2.45;;
57730;SDS011;43570;47.476;19.040;2023-07-20T13:55:39;4.78;;;2.50;;
57730;SDS011;43570;47.476;19.040;2023-07-20T13:58:04;3.92;;;2.17;;
57730;SDS011;43570;47.476;19.040;2023-07-20T14:00:30;4.35;;;2.40;;
57730;SDS011;43570;47.476;19.040;2023-07-20T14:02:58;4.90;;;2.30;;
57730;SDS011;43570;47.476;19.040;2023-07-20T14:05:24;4.72;;;2.60;;
57730;SDS011;43570;47.476;19.040;2023-07-20T14:07:49;4.35;;;2.45;;
57730;SDS011;43570;47.476;19.040;2023-07-20T14:10:15;6.28;;;2.40;;
57730;SDS011;43570;47.476;19.040;2023-07-20T14:12:40;5.00;;;2.20;;
57730;SDS011;43570;47.476;19.040;2023-07-20T14:15:06;4.20;;;2.42;;
57730;SDS011;43570;47.476;19.040;2023-07-20T14:17:31;5.15;;;2.47;;
57730;SDS011;43570;47.476;19.040;2023-07-20T14:19:57;6.18;;;2.80;;
57730;SDS011;43570;47.476;19.040;2023-07-20T14:22:22;5.50;;;2.50;;
57730;SDS011;43570;47.476;19.040;2023-07-20T14:24:48;5.25;;;2.05;;
57730;SDS011;43570;47.476;19.040;2023-07-20T14:27:14;6.12;;;2.70;;
57730;SDS011;43570;47.476;19.040;2023-07-20T14:29:39;4.62;;;2.30;;
57730;SDS011;43570;47.476;19.040;2023-07-20T14:32:05;4.40;;;2.50;;
57730;SDS011;43570;47.476;19.040;2023-07-20T14:34:32;5.37;;;2.33;;
57730;SDS011;43570;47.476;19.040;2023-07-20T14:37:01;4.28;;;2.20;;
57730;SDS011;43570;47.476;19.040;2023-07-20T14:39:26;5.00;;;3.03;;
57730;SDS011;43570;47.476;19.040;2023-07-20T14:41:52;3.53;;;2.22;;
57730;SDS011;43570;47.476;19.040;2023-07-20T14:44:17;5.60;;;2.80;;
57730;SDS011;43570;47.476;19.040;2023-07-20T14:46:43;4.60;;;2.50;;
57730;SDS011;43570;47.476;19.040;2023-07-20T14:49:08;2.78;;;2.10;;
57730;SDS011;43570;47.476;19.040;2023-07-20T14:51:35;4.12;;;2.50;;
57730;SDS011;43570;47.476;19.040;2023-07-20T14:54:07;5.90;;;3.33;;
57730;SDS011;43570;47.476;19.040;2023-07-20T14:56:33;7.55;;;2.78;;
57730;SDS011;43570;47.476;19.040;2023-07-20T14:58:59;5.43;;;2.17;;